createdAt,value
2022-08-12T00:00:09.842Z,5.93
2022-08-12T00:02:55.848Z,5.05
2022-08-12T00:05:58.281Z,5.60
2022-08-12T00:08:51.720Z,5.75
2022-08-12T00:11:39.266Z,5.20
2022-08-12T00:14:25.374Z,6.18
2022-08-12T00:17:12.088Z,5.03
2022-08-12T00:19:58.182Z,5.43
2022-08-12T00:22:46.379Z,5.57
2022-08-12T00:26:21.630Z,6.00
2022-08-12T00:29:05.611Z,4.72
2022-08-12T00:31:51.712Z,5.35
2022-08-12T00:34:38.335Z,4.32
2022-08-12T00:37:25.267Z,4.53
2022-08-12T00:40:14.724Z,4.78
2022-08-12T00:42:43.032Z,4.38
2022-08-12T00:45:10.957Z,5.70
2022-08-12T00:47:39.569Z,5.60
2022-08-12T00:50:09.262Z,4.93
2022-08-12T00:52:36.859Z,4.95
2022-08-12T00:55:06.100Z,4.85
2022-08-12T00:57:38.842Z,5.00
2022-08-12T01:00:08.520Z,5.60
2022-08-12T01:02:40.363Z,5.22
2022-08-12T01:05:29.639Z,5.05
2022-08-12T01:08:17.311Z,4.78
2022-08-12T01:11:05.295Z,4.78
2022-08-12T01:13:38.975Z,5.07
2022-08-12T01:16:08.431Z,4.80
2022-08-12T01:18:38.170Z,4.18
2022-08-12T01:21:27.437Z,5.55
2022-08-12T01:24:30.935Z,5.95
2022-08-12T01:27:01.409Z,5.95
2022-08-12T01:29:35.066Z,5.38
2022-08-12T01:32:10.162Z,5.03
2022-08-12T01:34:41.221Z,5.22
2022-08-12T01:37:10.130Z,5.00
2022-08-12T01:40:31.518Z,4.97
2022-08-12T01:42:48.137Z,4.55
2022-08-12T01:45:22.984Z,5.30
2022-08-12T01:48:05.983Z,5.05
2022-08-12T01:50:36.924Z,4.70
2022-08-12T01:53:06.469Z,5.43
2022-08-12T01:55:38.340Z,5.03
2022-08-12T01:58:29.066Z,4.63
2022-08-12T02:01:11.593Z,4.47
2022-08-12T02:04:05.502Z,4.75
2022-08-12T02:07:12.215Z,4.38
2022-08-12T02:10:50.923Z,4.97
2022-08-12T02:13:48.878Z,4.20
2022-08-12T02:16:46.411Z,4.65
2022-08-12T02:19:32.372Z,4.28
2022-08-12T02:22:29.988Z,4.50
2022-08-12T02:25:09.694Z,4.88
2022-08-12T02:27:45.649Z,4.53
2022-08-12T02:30:17.251Z,4.68
2022-08-12T02:35:23.051Z,4.45
2022-08-12T02:37:53.082Z,5.57
2022-08-12T02:40:22.166Z,5.00
2022-08-12T02:43:04.422Z,4.95
2022-08-12T02:46:10.484Z,4.82
2022-08-12T02:48:51.813Z,5.47
2022-08-12T02:51:23.882Z,4.93
2022-08-12T02:54:02.875Z,4.90
2022-08-12T02:56:34.631Z,5.05
2022-08-12T02:59:02.571Z,4.82
2022-08-12T03:01:35.651Z,5.97
2022-08-12T03:04:20.574Z,4.88
2022-08-12T03:06:58.273Z,4.80
2022-08-12T03:09:28.733Z,5.60
2022-08-12T03:12:09.868Z,4.65
2022-08-12T03:14:44.759Z,4.82
2022-08-12T03:17:22.218Z,4.65
2022-08-12T03:20:08.639Z,4.50
2022-08-12T03:22:43.635Z,5.88
2022-08-12T03:25:34.573Z,4.50
2022-08-12T03:28:03.937Z,4.83
2022-08-12T03:30:32.985Z,4.55
2022-08-12T03:33:02.695Z,5.00
2022-08-12T03:35:40.029Z,4.72
2022-08-12T03:38:12.400Z,5.45
2022-08-12T03:41:27.123Z,4.80
2022-08-12T03:44:48.586Z,5.10
2022-08-12T03:47:52.517Z,5.65
2022-08-12T03:50:39.824Z,5.72
2022-08-12T03:53:27.882Z,4.80
2022-08-12T03:56:14.652Z,5.30
2022-08-12T03:59:00.548Z,4.70
2022-08-12T04:01:28.214Z,4.93
2022-08-12T04:03:55.983Z,5.55
2022-08-12T04:06:34.814Z,5.10
2022-08-12T04:09:14.898Z,5.10
2022-08-12T04:12:04.542Z,5.47
2022-08-12T04:14:33.333Z,5.32
2022-08-12T04:17:03.359Z,4.50
2022-08-12T04:19:31.724Z,4.68
2022-08-12T04:22:01.840Z,5.43
2022-08-12T04:24:36.322Z,5.20
2022-08-12T04:27:07.333Z,5.60
2022-08-12T04:30:29.373Z,5.93
2022-08-12T04:32:22.987Z,4.88
2022-08-12T04:34:51.764Z,5.10
2022-08-12T04:37:19.597Z,6.13
2022-08-12T04:39:48.326Z,6.30
2022-08-12T04:42:16.259Z,4.72
2022-08-12T04:44:44.508Z,5.18
2022-08-12T04:47:16.598Z,5.28
2022-08-12T04:49:46.441Z,5.38
2022-08-12T04:52:14.536Z,4.40
2022-08-12T04:54:44.093Z,6.13
2022-08-12T04:57:11.835Z,5.68
2022-08-12T04:59:47.562Z,5.93
2022-08-12T05:02:22.138Z,5.25
2022-08-12T05:04:52.232Z,5.75
2022-08-12T05:07:20.870Z,5.28
2022-08-12T05:10:00.670Z,5.85
2022-08-12T05:12:37.905Z,5.88
2022-08-12T05:15:19.582Z,5.50
2022-08-12T05:17:55.948Z,5.88
2022-08-12T05:20:26.121Z,5.75
2022-08-12T05:23:12.949Z,5.78
2022-08-12T05:25:43.370Z,5.68
2022-08-12T05:28:13.153Z,5.55
2022-08-12T05:30:42.739Z,6.05
2022-08-12T05:33:12.457Z,6.22
2022-08-12T05:35:42.883Z,5.88
2022-08-12T05:38:31.686Z,5.78
2022-08-12T05:41:00.416Z,5.60
2022-08-12T05:43:28.840Z,5.75
2022-08-12T05:45:56.809Z,5.72
2022-08-12T05:48:24.568Z,5.80
2022-08-12T05:50:53.187Z,6.18
2022-08-12T05:53:20.815Z,6.03
2022-08-12T05:55:52.736Z,5.50
2022-08-12T05:58:21.295Z,6.55
2022-08-12T06:00:48.832Z,6.70
2022-08-12T06:03:19.476Z,6.28
2022-08-12T06:05:55.243Z,7.35
2022-08-12T06:08:24.882Z,5.90
2022-08-12T06:10:52.965Z,5.40
2022-08-12T06:13:28.388Z,5.43
2022-08-12T06:16:09.903Z,6.18
2022-08-12T06:18:40.117Z,5.75
2022-08-12T06:21:13.023Z,6.40
2022-08-12T06:23:42.874Z,7.20
2022-08-12T06:26:12.968Z,7.45
2022-08-12T06:28:44.601Z,6.72
2022-08-12T06:31:26.950Z,6.25
2022-08-12T06:34:52.937Z,6.18
2022-08-12T06:36:44.356Z,5.85
2022-08-12T06:39:15.065Z,5.78
2022-08-12T06:42:28.547Z,5.78
2022-08-12T06:44:50.466Z,6.15
2022-08-12T06:47:19.525Z,5.45
2022-08-12T06:49:48.625Z,5.53
2022-08-12T06:52:17.349Z,5.68
2022-08-12T06:54:45.775Z,5.55
2022-08-12T06:58:05.937Z,5.57
2022-08-12T07:00:00.875Z,5.70
2022-08-12T07:02:29.978Z,4.78
2022-08-12T07:05:00.214Z,4.55
2022-08-12T07:07:27.832Z,5.20
2022-08-12T07:10:05.154Z,5.07
2022-08-12T07:12:35.227Z,3.97
2022-08-12T07:15:02.884Z,3.30
2022-08-12T07:17:37.830Z,3.75
2022-08-12T07:20:29.462Z,3.72
2022-08-12T07:22:59.278Z,2.83
2022-08-12T07:25:40.497Z,3.97
2022-08-12T07:28:23.420Z,3.33
2022-08-12T07:30:52.847Z,3.30
2022-08-12T07:33:23.453Z,3.13
2022-08-12T07:35:54.009Z,3.00
2022-08-12T07:38:33.694Z,3.58
2022-08-12T07:41:02.223Z,3.08
2022-08-12T07:43:31.457Z,2.75
2022-08-12T07:46:00.729Z,3.83
2022-08-12T07:48:28.344Z,3.70
2022-08-12T07:50:55.917Z,3.50
2022-08-12T07:53:23.423Z,3.38
2022-08-12T07:55:51.046Z,2.85
2022-08-12T07:58:18.611Z,2.67
2022-08-12T08:00:46.144Z,2.60
2022-08-12T08:03:13.630Z,3.05
2022-08-12T08:05:46.506Z,2.67
2022-08-12T08:08:20.574Z,3.00
2022-08-12T08:10:50.149Z,2.90
2022-08-12T08:13:18.451Z,3.10
2022-08-12T08:16:02.475Z,3.08
2022-08-12T08:18:31.449Z,2.58
2022-08-12T08:20:59.115Z,2.20
2022-08-12T08:23:46.961Z,2.70
2022-08-12T08:26:24.903Z,2.72
2022-08-12T08:28:53.094Z,2.67
2022-08-12T08:31:21.639Z,2.80
2022-08-12T08:34:09.214Z,2.60
2022-08-12T08:36:37.609Z,3.00
2022-08-12T08:39:07.718Z,2.42
2022-08-12T08:42:16.029Z,3.25
2022-08-12T08:44:42.916Z,2.40
2022-08-12T08:47:13.044Z,2.72
2022-08-12T08:49:40.904Z,2.67
2022-08-12T08:52:11.994Z,2.60
2022-08-12T08:54:40.694Z,2.33
2022-08-12T08:57:08.704Z,2.45
2022-08-12T08:59:36.621Z,2.17
2022-08-12T09:02:04.430Z,2.15
2022-08-12T09:05:11.778Z,2.60
2022-08-12T09:07:43.776Z,2.40
2022-08-12T09:16:07.080Z,2.45
2022-08-12T09:18:35.839Z,2.70
2022-08-12T09:21:06.408Z,2.25
2022-08-12T09:24:00.274Z,2.33
2022-08-12T09:26:28.719Z,2.13
2022-08-12T09:29:00.770Z,2.30
2022-08-12T09:32:03.264Z,1.73
2022-08-12T09:34:31.065Z,1.80
2022-08-12T09:37:19.602Z,2.20
2022-08-12T09:40:05.030Z,1.92
2022-08-12T09:43:16.093Z,2.40
2022-08-12T09:46:06.087Z,2.28
2022-08-12T09:48:40.102Z,1.70
2022-08-12T09:51:21.585Z,2.80
2022-08-12T09:54:08.975Z,2.13
2022-08-12T09:56:58.968Z,2.30
2022-08-12T10:00:15.483Z,1.90
2022-08-12T10:02:45.732Z,2.20
2022-08-12T10:05:05.265Z,2.53
2022-08-12T10:07:39.652Z,2.05
2022-08-12T10:13:35.131Z,2.85
2022-08-12T10:16:04.704Z,1.85
2022-08-12T10:18:37.367Z,2.20
2022-08-12T10:21:36.493Z,2.40
2022-08-12T10:24:10.004Z,2.00
2022-08-12T10:26:58.308Z,2.10
2022-08-12T10:30:37.672Z,1.55
2022-08-12T10:32:43.974Z,2.28
2022-08-12T10:35:15.462Z,1.98
2022-08-12T10:38:36.565Z,1.90
2022-08-12T10:40:37.637Z,1.92
2022-08-12T10:43:23.927Z,1.80
2022-08-12T10:45:58.255Z,2.25
2022-08-12T10:48:33.867Z,2.35
2022-08-12T10:52:02.679Z,2.65
2022-08-12T10:54:00.275Z,1.90
2022-08-12T10:56:34.459Z,2.00
2022-08-12T10:59:11.123Z,2.00
2022-08-12T11:04:16.806Z,2.30
2022-08-12T11:04:49.131Z,1.95
2022-08-12T11:08:36.143Z,2.10
2022-08-12T11:10:05.719Z,2.28
2022-08-12T11:12:55.745Z,2.30
2022-08-12T11:15:33.295Z,2.22
2022-08-12T11:18:11.586Z,1.88
2022-08-12T11:20:40.321Z,1.98
2022-08-12T11:23:24.954Z,2.00
2022-08-12T11:26:04.980Z,2.25
2022-08-12T11:28:37.646Z,2.20
2022-08-12T11:31:09.847Z,1.80
2022-08-12T11:34:05.100Z,2.45
2022-08-12T11:36:29.307Z,2.20
2022-08-12T11:38:58.407Z,2.00
2022-08-12T11:41:31.497Z,2.08
2022-08-12T11:44:34.996Z,2.03
2022-08-12T11:46:54.039Z,2.25
2022-08-12T11:52:01.704Z,2.05
2022-08-12T11:54:30.265Z,2.20
2022-08-12T11:57:02.332Z,2.45
2022-08-12T12:02:21.301Z,2.40
2022-08-12T12:04:52.645Z,2.23
2022-08-12T12:07:22.791Z,2.20
2022-08-12T12:10:13.275Z,2.00
2022-08-12T12:12:50.141Z,2.45
2022-08-12T12:15:25.188Z,2.42
2022-08-12T12:18:06.762Z,2.47
2022-08-12T12:20:35.017Z,2.05
2022-08-12T12:23:03.989Z,2.22
2022-08-12T12:25:59.362Z,2.33
2022-08-12T12:28:35.299Z,2.45
2022-08-12T12:31:14.516Z,2.30
2022-08-12T12:33:58.369Z,2.35
2022-08-12T12:36:30.207Z,2.00
2022-08-12T12:39:00.385Z,2.05
2022-08-12T12:42:42.551Z,2.10
2022-08-12T12:44:26.117Z,2.17
2022-08-12T12:47:29.222Z,2.10
2022-08-12T12:49:53.571Z,1.98
2022-08-12T12:52:21.519Z,2.30
2022-08-12T12:54:58.715Z,2.40
2022-08-12T12:57:58.937Z,2.33
2022-08-12T13:00:15.327Z,2.35
2022-08-12T13:02:48.615Z,2.30
2022-08-12T13:05:27.608Z,2.40
2022-08-12T13:08:01.747Z,1.95
2022-08-12T13:10:36.818Z,1.98
2022-08-12T13:14:10.621Z,1.80
2022-08-12T13:15:59.210Z,2.25
2022-08-12T13:18:36.427Z,1.80
2022-08-12T13:21:06.323Z,2.33
2022-08-12T13:23:47.984Z,2.50
2022-08-12T13:26:18.079Z,2.35
2022-08-12T13:31:24.870Z,1.98
2022-08-12T13:34:32.317Z,2.10
2022-08-12T13:36:42.220Z,2.22
2022-08-12T13:39:10.242Z,2.20
2022-08-12T13:41:39.067Z,2.50
2022-08-12T13:44:10.715Z,2.65
2022-08-12T13:46:40.896Z,2.80
2022-08-12T13:49:17.614Z,2.53
2022-08-12T13:52:01.518Z,2.05
2022-08-12T13:54:29.727Z,2.45
2022-08-12T13:56:57.311Z,2.03
2022-08-12T13:59:26.721Z,2.42
2022-08-12T14:01:56.710Z,2.30
2022-08-12T14:04:24.883Z,2.33
2022-08-12T14:06:53.994Z,2.58
2022-08-12T14:09:21.577Z,1.93
2022-08-12T14:11:58.833Z,2.03
2022-08-12T14:14:31.539Z,2.33
2022-08-12T14:17:05.647Z,2.03
2022-08-12T14:19:48.705Z,2.28
2022-08-12T14:22:21.331Z,2.22
2022-08-12T14:24:53.942Z,2.15
2022-08-12T14:28:03.255Z,2.05
2022-08-12T14:30:15.683Z,2.10
2022-08-12T14:32:51.828Z,2.38
2022-08-12T14:35:20.389Z,2.22
2022-08-12T14:37:57.572Z,2.40
2022-08-12T14:40:30.190Z,2.10
2022-08-12T14:43:02.744Z,2.00
2022-08-12T14:45:44.429Z,2.10
2022-08-12T14:48:24.043Z,1.85
2022-08-12T14:51:02.997Z,1.98
2022-08-12T14:59:56.429Z,2.80
2022-08-12T15:02:23.503Z,2.42
2022-08-12T15:07:34.290Z,2.28
2022-08-12T15:10:31.563Z,2.08
2022-08-12T15:13:07.220Z,2.03
2022-08-12T15:15:43.812Z,2.20
2022-08-12T15:18:21.177Z,2.15
2022-08-12T15:20:54.654Z,1.70
2022-08-12T15:23:23.879Z,2.05
2022-08-12T15:26:02.977Z,2.00
2022-08-12T15:28:33.702Z,1.55
2022-08-12T15:31:03.158Z,1.85
2022-08-12T15:33:50.116Z,1.90
2022-08-12T15:36:50.263Z,2.22
2022-08-12T15:39:17.023Z,1.92
2022-08-12T15:41:50.124Z,1.83
2022-08-12T15:44:38.022Z,1.90
2022-08-12T15:47:07.836Z,1.65
2022-08-12T15:49:54.963Z,2.13
2022-08-12T15:54:58.891Z,2.55
2022-08-12T15:57:33.544Z,2.10
2022-08-12T16:00:09.312Z,2.00
2022-08-12T16:02:51.599Z,1.77
2022-08-12T16:06:12.339Z,2.28
2022-08-12T16:08:17.164Z,2.10
2022-08-12T16:10:47.879Z,1.88
2022-08-12T16:13:32.621Z,2.00
2022-08-12T16:16:22.473Z,1.70
2022-08-12T16:19:00.826Z,3.72
2022-08-12T16:21:51.556Z,1.70
2022-08-12T16:24:18.783Z,1.83
2022-08-12T16:26:51.490Z,1.88
2022-08-12T16:29:52.402Z,2.13
2022-08-12T16:32:24.120Z,1.75
2022-08-12T16:34:54.645Z,2.30
2022-08-12T16:37:32.348Z,2.17
2022-08-12T16:40:06.215Z,2.00
2022-08-12T16:42:53.235Z,2.17
2022-08-12T16:45:32.389Z,2.50
2022-08-12T16:48:33.670Z,2.90
2022-08-12T16:51:12.675Z,2.20
2022-08-12T16:53:50.865Z,2.00
2022-08-12T16:56:19.083Z,2.00
2022-08-12T16:58:47.380Z,2.45
2022-08-12T17:01:16.599Z,2.50
2022-08-12T17:04:08.499Z,2.60
2022-08-12T17:06:43.261Z,2.20
2022-08-12T17:09:17.337Z,1.90
2022-08-12T17:11:50.321Z,2.10
2022-08-12T17:14:23.181Z,2.17
2022-08-12T17:16:54.617Z,2.42
2022-08-12T17:20:29.089Z,2.30
2022-08-12T17:22:15.063Z,5.90
2022-08-12T17:24:55.401Z,2.25
2022-08-12T17:30:02.839Z,2.08
2022-08-12T17:32:35.049Z,2.10
2022-08-12T17:35:21.221Z,1.88
2022-08-12T17:37:50.782Z,2.25
2022-08-12T17:40:35.839Z,2.78
2022-08-12T17:43:56.950Z,2.15
2022-08-12T17:45:59.014Z,2.10
2022-08-12T17:48:35.060Z,2.30
2022-08-12T17:51:15.580Z,2.00
2022-08-12T17:54:06.199Z,2.08
2022-08-12T17:56:37.332Z,2.53
2022-08-12T17:59:12.605Z,2.13
2022-08-12T18:01:46.420Z,3.20
2022-08-12T18:04:23.382Z,2.30
2022-08-12T18:07:03.037Z,2.30
2022-08-12T18:09:36.463Z,2.50
2022-08-12T18:12:47.136Z,2.55
2022-08-12T18:15:26.773Z,3.03
2022-08-12T18:18:06.165Z,2.47
2022-08-12T18:20:46.229Z,2.60
2022-08-12T18:23:13.891Z,2.95
2022-08-12T18:26:15.852Z,2.60
2022-08-12T18:28:45.080Z,2.35
2022-08-12T18:31:18.334Z,2.30
2022-08-12T18:33:46.595Z,2.55
2022-08-12T18:36:14.723Z,2.88
2022-08-12T18:38:56.148Z,2.55
2022-08-12T18:41:33.467Z,2.60
2022-08-12T18:44:09.417Z,2.22
2022-08-12T18:46:54.219Z,2.80
2022-08-12T18:49:37.899Z,2.70
2022-08-12T18:52:08.643Z,2.55
2022-08-12T18:54:54.907Z,2.60
2022-08-12T18:58:06.825Z,2.53
2022-08-12T19:00:22.249Z,2.90
2022-08-12T19:02:54.476Z,2.30
2022-08-12T19:05:25.461Z,3.75
2022-08-12T19:08:14.103Z,2.40
2022-08-12T19:10:50.076Z,2.30
2022-08-12T19:13:38.530Z,2.17
2022-08-12T19:16:12.415Z,2.40
2022-08-12T19:18:45.153Z,2.67
2022-08-12T19:21:16.838Z,2.42
2022-08-12T19:24:08.916Z,2.58
2022-08-12T19:26:37.608Z,3.10
2022-08-12T19:29:07.734Z,2.45
2022-08-12T19:35:06.635Z,2.50
2022-08-12T19:37:27.167Z,3.20
2022-08-12T19:40:09.286Z,2.40
2022-08-12T19:42:53.218Z,2.58
2022-08-12T19:45:22.770Z,2.47
2022-08-12T19:47:50.452Z,3.95
2022-08-12T19:50:20.220Z,6.78
2022-08-12T19:52:52.641Z,5.75
2022-08-12T19:55:24.194Z,3.90
2022-08-12T19:58:01.518Z,4.85
2022-08-12T20:00:31.780Z,3.40
2022-08-12T20:03:00.388Z,3.25
2022-08-12T20:06:05.881Z,3.22
2022-08-12T20:08:26.430Z,2.13
2022-08-12T20:12:14.378Z,3.20
2022-08-12T20:14:01.142Z,2.90
2022-08-12T20:19:18.379Z,4.72
2022-08-12T20:21:46.041Z,2.65
2022-08-12T20:24:14.464Z,2.20
2022-08-12T20:26:43.278Z,2.67
2022-08-12T20:29:13.190Z,3.50
2022-08-12T20:31:41.479Z,2.80
2022-08-12T20:34:12.398Z,2.78
2022-08-12T20:36:44.776Z,2.78
2022-08-12T20:39:17.898Z,2.35
2022-08-12T20:42:07.088Z,2.78
2022-08-12T20:44:40.281Z,2.42
2022-08-12T20:47:18.017Z,2.53
2022-08-12T20:49:54.782Z,2.97
2022-08-12T20:52:25.491Z,2.70
2022-08-12T20:54:58.084Z,2.45
2022-08-12T20:57:38.177Z,2.40
2022-08-12T21:00:28.127Z,2.78
2022-08-12T21:03:16.162Z,3.08
2022-08-12T21:06:10.322Z,2.53
2022-08-12T21:08:43.750Z,2.65
2022-08-12T21:11:11.615Z,2.55
2022-08-12T21:13:41.923Z,2.88
2022-08-12T21:16:10.482Z,2.22
2022-08-12T21:18:38.360Z,2.03
2022-08-12T21:21:06.736Z,2.35
2022-08-12T21:23:51.320Z,2.53
2022-08-12T21:26:24.900Z,2.20
2022-08-12T21:29:01.407Z,2.55
2022-08-12T21:32:36.762Z,1.98
2022-08-12T21:34:22.125Z,2.60
2022-08-12T21:36:53.984Z,2.30
2022-08-12T21:39:35.240Z,2.17
2022-08-12T21:42:06.866Z,2.45
2022-08-12T21:47:23.457Z,2.65
2022-08-12T21:50:04.140Z,2.47
2022-08-12T21:52:36.816Z,2.50
2022-08-12T21:55:08.553Z,2.45
2022-08-12T21:57:53.360Z,2.10
2022-08-12T22:00:31.782Z,2.20
2022-08-12T22:04:03.566Z,2.20
2022-08-12T22:06:31.529Z,1.98
2022-08-12T22:09:15.340Z,2.70
2022-08-12T22:11:49.300Z,2.25
2022-08-12T22:14:24.902Z,2.35
2022-08-12T22:16:55.728Z,2.33
2022-08-12T22:19:23.680Z,2.47
2022-08-12T22:21:54.732Z,2.05
2022-08-12T22:24:27.248Z,1.80
2022-08-12T22:27:08.149Z,1.90
2022-08-12T22:30:04.586Z,2.13
2022-08-12T22:32:33.713Z,1.88
2022-08-12T22:35:24.044Z,2.10
2022-08-12T22:37:53.486Z,2.00
2022-08-12T22:43:15.439Z,2.35
2022-08-12T22:46:01.746Z,2.22
2022-08-12T22:48:30.570Z,2.25
2022-08-12T22:50:59.659Z,2.20
2022-08-12T22:53:36.091Z,2.10
2022-08-12T22:56:08.951Z,2.55
2022-08-12T22:58:41.964Z,2.20
2022-08-12T23:01:11.235Z,2.08
2022-08-12T23:03:47.800Z,1.90
2022-08-12T23:06:23.865Z,2.40
2022-08-12T23:08:53.891Z,2.30
2022-08-12T23:11:23.972Z,2.53
2022-08-12T23:13:57.105Z,2.25
2022-08-12T23:16:31.838Z,2.35
2022-08-12T23:19:22.942Z,2.78
2022-08-12T23:22:05.005Z,2.70
2022-08-12T23:24:56.584Z,2.08
2022-08-12T23:27:52.205Z,2.22
2022-08-12T23:30:31.278Z,1.90
2022-08-12T23:33:01.386Z,2.03
2022-08-12T23:35:53.852Z,2.40
2022-08-12T23:38:31.031Z,1.90
2022-08-12T23:41:02.048Z,1.98
2022-08-12T23:43:39.524Z,2.78
2022-08-12T23:46:10.514Z,2.22
2022-08-12T23:48:38.786Z,2.28
2022-08-12T23:51:22.138Z,2.47
2022-08-12T23:54:32.807Z,2.35
2022-08-12T23:57:10.971Z,2.05
2022-08-12T23:59:43.658Z,2.00
